createdAt,value
2022-12-15T02:44:41.059Z,99958.45
2022-12-15T02:45:54.158Z,99958.45
2022-12-15T02:47:17.944Z,99947.39
2022-12-15T02:48:49.598Z,99960.47
2022-12-15T02:49:59.534Z,99949.08
2022-12-15T02:51:27.420Z,99944.61
2022-12-15T02:52:52.423Z,99956.75
2022-12-15T02:54:05.394Z,99956.70
2022-12-15T02:55:43.589Z,99959.47
2022-12-15T02:57:02.695Z,99955.97
2022-12-15T02:58:17.042Z,99957.69
2022-12-15T02:59:27.043Z,99964.63
2022-12-15T03:00:34.143Z,99968.11
2022-12-15T03:01:46.860Z,99966.27
2022-12-15T03:02:54.640Z,99966.27
2022-12-15T03:04:04.338Z,99963.64
2022-12-15T03:05:14.222Z,99963.44
2022-12-15T03:06:21.189Z,99960.66
2022-12-15T03:07:33.828Z,99961.50
2022-12-15T03:08:34.740Z,99956.34
2022-12-15T03:09:43.654Z,99960.66
2022-12-15T03:10:52.564Z,99964.91
2022-12-15T03:12:01.077Z,99963.19
2022-12-15T03:13:05.190Z,99968.45
2022-12-15T03:14:09.192Z,99954.41
2022-12-15T03:15:16.194Z,99971.86
2022-12-15T03:16:22.632Z,99957.81
2022-12-15T03:17:26.615Z,99966.70
2022-12-15T03:18:32.286Z,99961.34
2022-12-15T03:19:43.507Z,99961.34
2022-12-15T03:20:47.562Z,99962.98
2022-12-15T03:21:54.266Z,99969.96
2022-12-15T03:22:57.446Z,99978.69
2022-12-15T03:24:34.373Z,99976.97
2022-12-15T03:25:09.121Z,99968.18
2022-12-15T03:26:16.472Z,99965.76
2022-12-15T03:27:26.859Z,99965.61
2022-12-15T03:28:34.332Z,99976.33
2022-12-15T03:29:38.551Z,99969.53
2022-12-15T03:30:44.300Z,99958.88
2022-12-15T03:31:51.301Z,99952.13
2022-12-15T03:32:56.796Z,99968.89
2022-12-15T03:34:05.609Z,99963.58
2022-12-15T03:35:23.365Z,99968.11
2022-12-15T03:36:31.872Z,99958.53
2022-12-15T03:37:37.821Z,99958.53
2022-12-15T03:38:42.799Z,99956.95
2022-12-15T03:39:51.452Z,99946.60
2022-12-15T03:40:55.514Z,99949.08
2022-12-15T03:41:59.826Z,99949.17
2022-12-15T03:43:05.479Z,99945.75
2022-12-15T03:44:09.571Z,99948.33
2022-12-15T03:45:16.365Z,99929.00
2022-12-15T03:46:23.868Z,99938.57
2022-12-15T03:47:40.491Z,99938.81
2022-12-15T03:48:35.238Z,99935.04
2022-12-15T03:49:42.431Z,99954.27
2022-12-15T03:50:53.807Z,99937.66
2022-12-15T03:51:58.915Z,99937.66
2022-12-15T03:53:07.997Z,99926.16
2022-12-15T03:54:14.190Z,99925.16
2022-12-15T03:55:18.508Z,99925.16
2022-12-15T03:56:23.195Z,99922.38
2022-12-15T03:57:27.100Z,99927.85
2022-12-15T03:58:31.018Z,99928.70
2022-12-15T03:59:40.372Z,99922.29
2022-12-15T04:00:42.243Z,99911.72
2022-12-15T04:01:48.998Z,99909.03
2022-12-15T04:02:55.460Z,99922.29
2022-12-15T04:04:01.538Z,99893.63
2022-12-15T04:05:11.674Z,99913.66
2022-12-15T04:06:17.276Z,99897.95
2022-12-15T04:07:22.863Z,99911.24
2022-12-15T04:08:26.921Z,99903.42
2022-12-15T04:09:30.913Z,99893.06
2022-12-15T04:10:39.179Z,99884.33
2022-12-15T04:12:05.684Z,99890.52
2022-12-15T04:13:09.278Z,99890.52
2022-12-15T04:14:18.284Z,99875.52
2022-12-15T04:15:25.422Z,99894.06
2022-12-15T04:16:29.624Z,99899.46
2022-12-15T04:17:37.754Z,99881.23
2022-12-15T04:18:41.866Z,99883.70
2022-12-15T04:19:47.447Z,99869.78
2022-12-15T04:20:56.010Z,99871.66
2022-12-15T04:21:59.942Z,99872.29
2022-12-15T04:23:04.054Z,99878.45
2022-12-15T04:24:08.320Z,99885.54
2022-12-15T04:25:21.528Z,99885.54
2022-12-15T04:26:32.327Z,99437.05
2022-12-15T04:28:53.171Z,99867.16
2022-12-15T04:29:18.147Z,99867.94
2022-12-15T04:29:57.266Z,99870.66
2022-12-15T04:31:12.919Z,99867.03
2022-12-15T04:32:18.729Z,99864.47
2022-12-15T04:33:30.503Z,99872.29
2022-12-15T04:34:31.694Z,99844.14
2022-12-15T04:35:37.267Z,99847.55
2022-12-15T04:36:45.610Z,99849.24
2022-12-15T04:37:51.732Z,99846.77
2022-12-15T04:38:55.938Z,99838.61
2022-12-15T04:40:00.829Z,99829.85
2022-12-15T04:41:07.306Z,99816.66
2022-12-15T04:42:13.554Z,99803.52
2022-12-15T04:43:19.098Z,99818.19
2022-12-15T04:44:26.935Z,99826.06
2022-12-15T04:45:36.260Z,99833.05
2022-12-15T04:46:40.269Z,99833.05
2022-12-15T04:47:44.383Z,99820.81
2022-12-15T04:48:50.035Z,99812.93
2022-12-15T04:49:54.133Z,99812.02
2022-12-15T04:50:59.679Z,99812.02
2022-12-15T04:52:05.244Z,99807.55
2022-12-15T04:53:13.450Z,99812.71
2022-12-15T04:54:17.066Z,99811.92
2022-12-15T04:55:21.055Z,99812.71
2022-12-15T04:56:24.988Z,99809.39
2022-12-15T04:57:29.004Z,99800.41
2022-12-15T04:58:34.313Z,99807.39
2022-12-15T04:59:38.165Z,99807.39
2022-12-15T05:00:42.268Z,99791.78
2022-12-15T05:01:47.005Z,99804.14
2022-12-15T05:02:53.659Z,99828.70
2022-12-15T05:03:57.659Z,99828.70
2022-12-15T05:05:03.192Z,99801.52
2022-12-15T05:06:08.289Z,99800.73
2022-12-15T05:07:12.475Z,99823.59
2022-12-15T05:08:17.640Z,99802.52
2022-12-15T05:09:23.191Z,99801.58
2022-12-15T05:10:27.207Z,99803.30
2022-12-15T05:11:38.045Z,99800.73
2022-12-15T05:12:40.500Z,99793.63
2022-12-15T05:13:44.657Z,99803.36
2022-12-15T05:14:49.582Z,99800.89
2022-12-15T05:15:55.527Z,99794.63
2022-12-15T05:17:00.913Z,99796.41
2022-12-15T05:18:05.120Z,99796.41
2022-12-15T05:19:09.157Z,99800.73
2022-12-15T05:20:13.181Z,99785.97
2022-12-15T05:21:20.950Z,99786.81
2022-12-15T05:22:28.136Z,99769.20
2022-12-15T05:23:36.469Z,99759.53
2022-12-15T05:25:08.800Z,99789.38
2022-12-15T05:26:07.717Z,99765.80
2022-12-15T05:26:58.369Z,99781.40
2022-12-15T05:28:05.356Z,99773.61
2022-12-15T05:29:09.422Z,99775.45
2022-12-15T05:30:16.164Z,99783.28
2022-12-15T05:31:20.903Z,99786.81
2022-12-15T05:32:24.950Z,99778.87
2022-12-15T05:33:29.380Z,99764.73
2022-12-15T05:34:35.330Z,99764.73
2022-12-15T05:35:42.101Z,99789.06
2022-12-15T05:36:48.267Z,99767.98
2022-12-15T05:37:53.991Z,99767.03
2022-12-15T05:39:01.187Z,99767.88
2022-12-15T05:40:07.497Z,99767.88
2022-12-15T05:41:11.433Z,99753.67
2022-12-15T05:42:17.026Z,99768.44
2022-12-15T05:43:26.197Z,99771.97
2022-12-15T05:44:28.823Z,99752.83
2022-12-15T05:45:37.062Z,99765.80
2022-12-15T05:46:42.574Z,99765.80
2022-12-15T05:47:49.653Z,99768.27
2022-12-15T05:49:00.109Z,99759.45
2022-12-15T05:50:01.101Z,99769.80
2022-12-15T05:51:10.009Z,99761.16
2022-12-15T05:52:17.693Z,99753.19
2022-12-15T05:53:22.016Z,99755.03
2022-12-15T05:54:26.198Z,99755.75
2022-12-15T10:30:33.796Z,99819.33
2022-12-15T10:31:54.384Z,99816.70
2022-12-15T21:57:41.130Z,100466.55
2022-12-15T21:58:51.326Z,100452.40
2022-12-15T21:59:59.158Z,100446.11
2022-12-15T22:01:09.123Z,100452.27
2022-12-15T22:03:55.421Z,100474.09
2022-12-15T22:05:05.767Z,100463.52
2022-12-15T22:06:15.956Z,100472.29
2022-12-15T22:07:27.023Z,100476.66
2022-12-15T22:08:35.799Z,100467.79
2022-12-15T22:09:48.482Z,100473.86
2022-12-15T22:11:09.415Z,100487.91
2022-12-15T22:12:10.883Z,100480.77
2022-12-15T22:14:48.372Z,100475.32
2022-12-15T22:15:55.725Z,100486.73
2022-12-15T22:17:01.976Z,100472.67
2022-12-15T22:18:12.185Z,100477.86
2022-12-15T22:19:19.280Z,100485.72
2022-12-15T22:20:25.600Z,100485.79
2022-12-15T22:21:31.208Z,100481.45
2022-12-15T22:22:35.550Z,100477.86
2022-12-15T22:23:40.013Z,100481.45
2022-12-15T22:24:48.249Z,100485.72
2022-12-15T22:25:55.361Z,100487.52
2022-12-15T22:27:01.271Z,100487.58
2022-12-15T22:28:06.900Z,100486.57
2022-12-15T22:29:20.260Z,100481.29
2022-12-15T22:30:27.031Z,100490.16
2022-12-15T22:31:31.377Z,100484.71
2022-12-15T22:32:37.451Z,100484.71
2022-12-15T22:33:48.351Z,100496.98
2022-12-15T22:34:52.773Z,100487.25
2022-12-15T22:35:58.646Z,100495.19
2022-12-15T22:37:02.920Z,100495.28
2022-12-15T22:38:07.181Z,100502.27
2022-12-15T22:39:13.632Z,100506.63
2022-12-15T22:40:18.477Z,100510.28
2022-12-15T22:41:31.070Z,100510.35
2022-12-15T22:42:40.639Z,100506.02
2022-12-15T22:43:49.476Z,100504.28
2022-12-15T22:44:54.138Z,100505.13
2022-12-15T22:46:05.741Z,100505.13
2022-12-15T22:47:12.126Z,100502.59
2022-12-15T22:48:20.087Z,100500.02
2022-12-15T22:49:27.299Z,100511.59
2022-12-15T22:50:31.710Z,100508.20
2022-12-15T22:53:20.504Z,100498.48
2022-12-15T22:54:27.265Z,100497.70
2022-12-15T22:55:31.340Z,100501.19
2022-12-15T22:56:38.450Z,100495.90
2022-12-15T22:57:46.207Z,100500.34
2022-12-15T23:22:44.098Z,100475.56
2022-12-15T23:27:25.534Z,100480.31
2022-12-15T23:28:30.023Z,100489.23
2022-12-15T23:29:34.287Z,100488.45
2022-12-15T23:30:45.181Z,100488.61
2022-12-15T23:31:50.728Z,100498.38
2022-12-15T23:32:55.508Z,100493.27
2022-12-15T23:34:01.544Z,100496.91
2022-12-15T23:35:10.996Z,100496.12
2022-12-15T23:36:31.054Z,100507.68
2022-12-15T23:37:43.437Z,100499.00
2022-12-15T23:38:58.238Z,100506.14
2022-12-15T23:40:16.475Z,100509.69
